createdAt,value
2019-04-11T00:01:56.853Z,100717.34
2019-04-11T00:04:42.469Z,100719.03
2019-04-11T00:07:28.119Z,100722.67
2019-04-11T00:10:15.272Z,100722.67
2019-04-11T00:13:15.104Z,100724.70
2019-04-11T00:15:49.342Z,100727.33
2019-04-11T00:18:36.067Z,100737.00
2019-04-11T00:21:24.597Z,100729.17
2019-04-11T00:24:10.757Z,100741.08
2019-04-11T00:26:57.162Z,100742.81
2019-04-11T00:29:42.858Z,100751.81
2019-04-11T00:32:29.566Z,100749.20
2019-04-11T00:35:17.374Z,100747.86
2019-04-11T00:38:03.469Z,100747.28
2019-04-11T00:40:49.203Z,100745.45
2019-04-11T00:43:39.052Z,100742.89
2019-04-11T00:46:22.994Z,100746.56
2019-04-11T00:49:08.549Z,100746.98
2019-04-11T00:51:56.130Z,100745.16
2019-04-11T00:54:42.706Z,100740.00
2019-04-11T00:57:28.660Z,100742.14
2019-04-11T01:00:15.429Z,100739.55
2019-04-11T01:03:02.033Z,100741.30
2019-04-11T01:05:49.911Z,100739.97
2019-04-11T01:08:36.209Z,100743.53
2019-04-11T01:11:21.941Z,100747.53
2019-04-11T01:14:07.916Z,100745.87
2019-04-11T01:16:54.835Z,100750.29
2019-04-11T01:19:40.794Z,100757.01
2019-04-11T01:22:26.575Z,100752.56
2019-04-11T01:25:13.335Z,100751.58
2019-04-11T01:28:00.456Z,100749.52
2019-04-11T01:31:06.783Z,100752.13
2019-04-11T01:33:53.806Z,100755.05
2019-04-11T01:36:39.485Z,100753.91
2019-04-11T01:39:45.272Z,100758.11
2019-04-11T01:42:31.413Z,100760.84
2019-04-11T01:45:19.486Z,100764.12
2019-04-11T01:48:15.910Z,100768.00
2019-04-11T01:51:01.466Z,100767.27
2019-04-11T01:53:47.070Z,100766.30
2019-04-11T01:56:33.607Z,100771.48
2019-04-11T01:59:19.481Z,100771.97
2019-04-11T02:02:28.700Z,100775.41
2019-04-11T02:05:29.406Z,100771.66
2019-04-11T02:08:15.400Z,100784.95
2019-04-11T02:11:01.614Z,100787.23
2019-04-11T02:13:48.180Z,100783.66
2019-04-11T02:16:34.872Z,100783.22
2019-04-11T02:19:21.514Z,100784.81
2019-04-11T02:22:22.787Z,100780.33
2019-04-11T02:25:25.452Z,100789.78
2019-04-11T02:28:12.818Z,100793.47
2019-04-11T02:31:00.155Z,100792.45
2019-04-11T02:33:48.822Z,100792.95
2019-04-11T02:36:36.416Z,100796.38
2019-04-11T02:39:24.333Z,100798.48
2019-04-11T02:42:10.878Z,100800.16
2019-04-11T02:45:13.205Z,100802.41
2019-04-11T02:47:48.150Z,100805.17
2019-04-11T02:50:34.948Z,100808.34
2019-04-11T02:53:23.607Z,100809.14
2019-04-11T02:56:11.702Z,100812.94
2019-04-11T02:58:59.870Z,100809.34
2019-04-11T03:01:46.469Z,100802.81
2019-04-11T03:04:32.608Z,100810.73
2019-04-11T03:07:20.546Z,100803.47
2019-04-11T03:10:07.395Z,100807.84
2019-04-11T03:12:54.585Z,100807.15
2019-04-11T03:15:56.961Z,100809.14
2019-04-11T03:18:45.796Z,100809.27
2019-04-11T03:21:21.574Z,100813.86
2019-04-11T03:24:08.331Z,100811.98
2019-04-11T03:26:57.984Z,100813.20
2019-04-11T03:29:43.189Z,100816.13
2019-04-11T03:33:17.378Z,100815.73
2019-04-11T03:36:07.578Z,100822.14
2019-04-11T03:38:31.138Z,100816.42
2019-04-11T03:41:10.335Z,100818.91
2019-04-11T03:43:57.060Z,100816.48
2019-04-11T03:46:47.704Z,100819.75
2019-04-11T03:49:27.823Z,100817.84
2019-04-11T03:52:06.331Z,100822.03
2019-04-11T03:54:54.044Z,100822.95
2019-04-11T03:57:41.762Z,100830.26
2019-04-11T04:00:33.584Z,100824.94
2019-04-11T04:03:15.727Z,100827.35
2019-04-11T04:06:02.051Z,100827.41
2019-04-11T04:08:50.677Z,100836.82
2019-04-11T04:11:38.053Z,100835.66
2019-04-11T04:14:44.617Z,100837.98
2019-04-11T04:17:52.271Z,100841.05
2019-04-11T04:21:09.178Z,100838.02
2019-04-11T04:23:57.876Z,100845.34
2019-04-11T04:26:43.633Z,100845.23
2019-04-11T04:29:32.040Z,100849.47
2019-04-11T04:32:18.725Z,100852.11
2019-04-11T04:35:09.147Z,100853.39
2019-04-11T04:37:54.601Z,100858.78
2019-04-11T04:40:58.542Z,100860.94
2019-04-11T04:43:31.573Z,100868.64
2019-04-11T04:46:38.244Z,100869.34
2019-04-11T04:49:06.971Z,100870.05
2019-04-11T04:51:53.344Z,100869.77
2019-04-11T04:54:41.066Z,100878.06
2019-04-11T04:57:29.772Z,100882.75
2019-04-11T05:00:16.068Z,100879.66
2019-04-11T05:03:02.407Z,100886.16
2019-04-11T05:05:51.054Z,100886.80
2019-04-11T05:08:38.854Z,100893.53
2019-04-11T05:11:26.240Z,100895.09
2019-04-11T05:14:12.571Z,100891.91
2019-04-11T05:16:58.668Z,100899.33
2019-04-11T05:19:44.646Z,100899.33
2019-04-11T05:22:31.071Z,100897.23
2019-04-11T05:25:18.189Z,100902.29
2019-04-11T05:28:06.517Z,100909.57
2019-04-11T05:30:53.202Z,100914.14
2019-04-11T05:33:41.011Z,100916.89
2019-04-11T05:36:26.419Z,100925.23
2019-04-11T05:39:13.094Z,100916.57
2019-04-11T05:42:00.191Z,100920.23
2019-04-11T05:44:45.629Z,100920.23
2019-04-11T05:47:31.697Z,100919.91
2019-04-11T05:50:28.778Z,100925.53
2019-04-11T05:53:15.733Z,100930.33
2019-04-11T05:56:03.666Z,100919.70
2019-04-11T05:58:51.522Z,100926.11
2019-04-11T06:01:42.506Z,100931.52
2019-04-11T06:04:34.623Z,100927.31
2019-04-11T06:07:27.866Z,100927.31
2019-04-11T06:10:18.091Z,100925.72
2019-04-11T06:13:16.457Z,100924.38
2019-04-11T06:16:03.091Z,100922.36
2019-04-11T06:19:28.638Z,100927.08
2019-04-11T06:22:16.870Z,100924.45
2019-04-11T06:25:19.488Z,100934.80
2019-04-11T06:28:13.864Z,100940.66
2019-04-11T06:31:20.204Z,100942.95
2019-04-11T06:34:07.200Z,100950.53
2019-04-11T06:37:14.917Z,100949.74
2019-04-11T06:40:06.111Z,100950.27
2019-04-11T06:43:03.676Z,100957.50
2019-04-11T06:46:13.163Z,100963.11
2019-04-11T06:49:06.574Z,100960.03
2019-04-11T06:51:56.761Z,100966.25
2019-04-11T06:55:08.761Z,100962.36
2019-04-11T06:58:08.593Z,100965.56
2019-04-11T07:01:09.685Z,100965.56
2019-04-11T07:04:06.470Z,100965.89
2019-04-11T07:06:53.840Z,100968.55
2019-04-11T07:09:45.286Z,100967.47
2019-04-11T07:12:47.135Z,100969.56
2019-04-11T07:15:39.811Z,100967.70
2019-04-11T07:18:35.728Z,100975.72
2019-04-11T07:21:25.342Z,100972.05
2019-04-11T07:24:25.415Z,100966.83
2019-04-11T07:27:14.260Z,100976.55
2019-04-11T07:30:31.349Z,100976.19
2019-04-11T07:33:46.780Z,100982.22
2019-04-11T07:36:53.574Z,100984.33
2019-04-11T07:40:09.325Z,100979.61
2019-04-11T07:43:08.810Z,100983.70
2019-04-11T07:46:22.372Z,100983.80
2019-04-11T07:49:08.339Z,100988.55
2019-04-11T07:51:58.136Z,100996.73
2019-04-11T07:54:56.205Z,100993.44
2019-04-11T07:58:17.456Z,101000.75
2019-04-11T08:01:33.890Z,101006.67
2019-04-11T08:04:51.177Z,101011.13
2019-04-11T08:08:06.281Z,101005.81
2019-04-11T08:11:11.543Z,101014.27
2019-04-11T08:14:18.208Z,101012.83
2019-04-11T08:17:25.883Z,101024.74
2019-04-11T08:20:35.772Z,101022.69
2019-04-11T08:23:23.481Z,101015.41
2019-04-11T08:26:32.346Z,101018.36
2019-04-11T08:29:20.044Z,101021.72
2019-04-11T08:32:25.919Z,101018.10
2019-04-11T08:35:26.593Z,101018.77
2019-04-11T08:38:16.549Z,101027.70
2019-04-11T08:41:31.754Z,101025.47
2019-04-11T08:44:24.170Z,101027.67
2019-04-11T08:47:12.608Z,101027.05
2019-04-11T08:49:58.450Z,101027.14
2019-04-11T08:53:02.558Z,101025.90
2019-04-11T08:55:56.258Z,101026.66
2019-04-11T08:59:04.992Z,101032.33
2019-04-11T09:01:50.553Z,101023.68
2019-04-11T09:05:08.449Z,101023.25
2019-04-11T09:08:12.429Z,101027.81
2019-04-11T09:11:17.031Z,101028.95
2019-04-11T09:14:22.351Z,101025.08
2019-04-11T09:17:16.511Z,101020.77
2019-04-11T09:20:29.794Z,101025.22
2019-04-11T09:23:19.757Z,101022.45
2019-04-11T09:26:32.014Z,101024.23
2019-04-11T09:29:19.021Z,101027.34
2019-04-11T09:32:26.636Z,101027.81
2019-04-11T09:35:22.086Z,101018.16
2019-04-11T09:38:10.483Z,101020.47
2019-04-11T09:41:05.961Z,101014.01
2019-04-11T09:43:54.481Z,101018.30
2019-04-11T09:47:15.537Z,101010.73
2019-04-11T09:50:02.522Z,101015.14
2019-04-11T09:52:49.565Z,101007.74
2019-04-11T09:55:49.990Z,101006.53
2019-04-11T09:58:35.753Z,101009.41
2019-04-11T10:01:40.794Z,101016.28
2019-04-11T10:04:29.738Z,101006.29
2019-04-11T10:07:54.475Z,101009.16
2019-04-11T10:10:58.165Z,101008.15
2019-04-11T10:13:59.542Z,101009.13
2019-04-11T10:17:06.692Z,101002.56
2019-04-11T10:19:58.526Z,101000.25
2019-04-11T10:23:03.301Z,100997.13
2019-04-11T10:25:57.723Z,101005.78
2019-04-11T10:29:06.525Z,101010.55
2019-04-11T10:31:52.832Z,101006.51
2019-04-11T10:34:57.627Z,101007.24
2019-04-11T10:37:44.371Z,101013.35
2019-04-11T10:41:02.132Z,101010.81
2019-04-11T10:43:48.121Z,101014.62
2019-04-11T10:46:45.385Z,101017.34
2019-04-11T10:49:50.539Z,101011.36
2019-04-11T10:52:39.414Z,101016.55
2019-04-11T10:55:44.693Z,101014.37
2019-04-11T10:58:51.242Z,101014.95
2019-04-11T11:01:58.179Z,101011.67
2019-04-11T11:04:48.482Z,101014.77
2019-04-11T11:07:36.724Z,101016.80
2019-04-11T11:10:25.830Z,101013.03
2019-04-11T11:13:50.119Z,101012.02
2019-04-11T11:16:45.469Z,101016.08
2019-04-11T11:20:11.881Z,101019.84
2019-04-11T11:23:29.060Z,101029.67
2019-04-11T11:26:21.432Z,101029.83
2019-04-11T11:29:24.388Z,101024.73
2019-04-11T11:32:23.213Z,101034.56
2019-04-11T11:35:30.598Z,101034.09
2019-04-11T11:38:22.294Z,101036.70
2019-04-11T11:41:39.328Z,101035.86
2019-04-11T11:44:31.365Z,101036.87
2019-04-11T11:47:38.699Z,101032.55
2019-04-11T11:50:23.754Z,101036.02
2019-04-11T11:53:33.105Z,101033.38
2019-04-11T11:56:19.925Z,101029.92
2019-04-11T11:59:15.271Z,101029.48
2019-04-11T12:02:08.501Z,101025.65
2019-04-11T12:05:18.046Z,101026.08
2019-04-11T12:08:20.348Z,101028.20
2019-04-11T12:11:10.227Z,101028.23
2019-04-11T12:14:13.180Z,101026.50
2019-04-11T12:17:10.156Z,101025.64
2019-04-11T12:20:09.782Z,101026.92
2019-04-11T12:22:55.225Z,101028.23
2019-04-11T12:25:45.169Z,101021.75
2019-04-11T12:28:52.172Z,101025.66
2019-04-11T12:31:40.470Z,101023.06
2019-04-11T12:34:55.725Z,101026.89
2019-04-11T12:37:50.357Z,101027.34
2019-04-11T12:41:06.606Z,101027.36
2019-04-11T12:44:29.480Z,101029.97
2019-04-11T12:47:42.296Z,101022.63
2019-04-11T12:51:03.154Z,101016.89
2019-04-11T12:53:49.855Z,101012.28
2019-04-11T12:56:52.366Z,101015.70
2019-04-11T12:59:41.529Z,101014.33
2019-04-11T13:02:50.389Z,101018.73
2019-04-11T13:05:35.847Z,101016.56
2019-04-11T13:08:41.529Z,101012.67
2019-04-11T13:11:27.636Z,101014.38
2019-04-11T13:14:32.083Z,101018.30
2019-04-11T13:17:25.785Z,101015.64
2019-04-11T13:20:37.905Z,101013.00
2019-04-11T13:23:31.772Z,101012.30
2019-04-11T13:26:38.081Z,101015.70
2019-04-11T13:29:53.201Z,101015.67
2019-04-11T13:32:49.866Z,101011.26
2019-04-11T13:36:03.719Z,101015.28
2019-04-11T13:38:51.683Z,101005.66
2019-04-11T13:41:49.116Z,101016.59
2019-04-11T13:44:38.407Z,101008.12
2019-04-11T13:47:56.969Z,101016.95
2019-04-11T13:50:43.084Z,101008.70
2019-04-11T13:53:47.513Z,101010.45
2019-04-11T13:57:01.231Z,101009.20
2019-04-11T14:00:05.604Z,101007.95
2019-04-11T14:03:15.109Z,101007.95
2019-04-11T14:06:09.657Z,101002.22
2019-04-11T14:09:14.926Z,101010.50
2019-04-11T14:12:04.868Z,101002.92
2019-04-11T14:15:01.096Z,100998.28
2019-04-11T14:18:05.086Z,100999.25
2019-04-11T14:20:57.232Z,101001.41
2019-04-11T14:24:02.066Z,101005.30
2019-04-11T14:26:49.346Z,101009.18
2019-04-11T14:29:41.745Z,101005.24
2019-04-11T14:32:29.842Z,101001.49
2019-04-11T14:35:34.025Z,101000.08
2019-04-11T14:38:21.800Z,101000.98
2019-04-11T14:41:17.430Z,101002.37
2019-04-11T14:44:03.852Z,101006.16
2019-04-11T14:47:22.449Z,100997.94
2019-04-11T14:50:11.211Z,100993.34
2019-04-11T14:53:20.778Z,100995.27
2019-04-11T14:56:07.912Z,101004.67
2019-04-11T14:59:25.457Z,101002.48
2019-04-11T15:02:32.571Z,100991.77
2019-04-11T15:05:27.956Z,100994.29
2019-04-11T15:08:17.744Z,100992.66
2019-04-11T15:11:25.546Z,100997.61
2019-04-11T15:14:40.198Z,101000.61
2019-04-11T15:17:31.105Z,101004.03
2019-04-11T15:20:56.004Z,100994.91
2019-04-11T15:23:44.302Z,100991.09
2019-04-11T15:26:48.922Z,100996.98
2019-04-11T15:29:37.581Z,101000.50
2019-04-11T15:32:42.924Z,100996.61
2019-04-11T15:35:28.835Z,101006.37
2019-04-11T15:38:52.413Z,101000.56
2019-04-11T15:41:39.338Z,100993.17
2019-04-11T15:44:45.422Z,100995.48
2019-04-11T15:47:31.128Z,101002.60
2019-04-11T15:50:45.508Z,101000.30
2019-04-11T15:53:46.270Z,101005.31
2019-04-11T15:56:42.063Z,101002.58
2019-04-11T15:59:56.737Z,101013.55
2019-04-11T16:03:00.078Z,101008.09
2019-04-11T16:06:11.894Z,101007.31
2019-04-11T16:09:01.478Z,101019.25
2019-04-11T16:12:06.127Z,101014.30
2019-04-11T16:15:06.614Z,101013.63
2019-04-11T16:18:06.255Z,101010.24
2019-04-11T16:20:54.750Z,101010.17
2019-04-11T16:23:57.637Z,101013.84
2019-04-11T16:27:06.495Z,101020.72
2019-04-11T16:29:58.134Z,101012.33
2019-04-11T16:32:48.395Z,101017.16
2019-04-11T16:35:44.959Z,101017.29
2019-04-11T16:38:34.667Z,101020.07
2019-04-11T16:41:39.378Z,101029.09
2019-04-11T16:44:47.502Z,101021.92
2019-04-11T16:47:44.028Z,101028.31
2019-04-11T16:50:30.345Z,101033.70
2019-04-11T16:53:16.280Z,101030.41
2019-04-11T16:56:03.001Z,101033.86
2019-04-11T16:58:50.081Z,101031.84
2019-04-11T17:01:37.019Z,101036.61
2019-04-11T17:04:27.294Z,101037.91
2019-04-11T17:07:35.584Z,101028.65
2019-04-11T17:10:42.013Z,101033.26
2019-04-11T17:13:32.117Z,101032.56
2019-04-11T17:16:21.057Z,101039.64
2019-04-11T17:19:07.148Z,101042.04
2019-04-11T17:21:55.731Z,101037.41
2019-04-11T17:24:42.254Z,101047.13
2019-04-11T17:27:39.723Z,101042.81
2019-04-11T17:30:38.822Z,101054.69
2019-04-11T17:33:28.647Z,101054.69
2019-04-11T17:36:14.975Z,101047.77
2019-04-11T17:39:00.769Z,101058.33
2019-04-11T17:41:46.462Z,101050.20
2019-04-11T17:44:34.155Z,101051.47
2019-04-11T17:47:19.903Z,101051.33
2019-04-11T17:50:06.374Z,101055.21
2019-04-11T17:52:54.639Z,101055.45
2019-04-11T17:55:40.350Z,101054.72
2019-04-11T17:58:27.762Z,101061.77
2019-04-11T18:01:14.352Z,101052.35
2019-04-11T18:03:59.891Z,101058.30
2019-04-11T18:06:47.240Z,101060.50
2019-04-11T18:09:34.082Z,101057.11
2019-04-11T18:12:19.871Z,101059.66
2019-04-11T18:15:07.530Z,101063.39
2019-04-11T18:17:53.606Z,101060.63
2019-04-11T18:20:40.194Z,101057.05
2019-04-11T18:23:25.830Z,101065.30
2019-04-11T18:26:11.836Z,101067.75
2019-04-11T18:28:57.738Z,101070.17
2019-04-11T18:31:45.570Z,101074.60
2019-04-11T18:34:32.311Z,101075.56
2019-04-11T18:37:18.994Z,101072.89
2019-04-11T18:40:08.081Z,101077.86
2019-04-11T18:42:53.159Z,101080.44
2019-04-11T18:45:39.798Z,101081.59
2019-04-11T18:48:25.999Z,101085.16
2019-04-11T18:51:16.218Z,101086.45
2019-04-11T18:54:02.412Z,101088.22
2019-04-11T18:56:48.508Z,101095.74
2019-04-11T18:59:34.626Z,101088.60
2019-04-11T19:02:25.963Z,101097.06
2019-04-11T19:05:13.362Z,101096.59
2019-04-11T19:07:59.414Z,101096.86
2019-04-11T19:10:45.998Z,101100.12
2019-04-11T19:13:31.833Z,101099.02
2019-04-11T19:16:17.669Z,101099.50
2019-04-11T19:19:03.822Z,101098.09
2019-04-11T19:21:51.071Z,101104.19
2019-04-11T19:24:41.512Z,101104.16
2019-04-11T19:27:26.383Z,101104.68
2019-04-11T19:30:12.357Z,101105.09
2019-04-11T19:32:58.191Z,101113.75
2019-04-11T19:35:45.223Z,101119.50
2019-04-11T19:38:32.626Z,101115.61
2019-04-11T19:41:18.392Z,101112.59
2019-04-11T19:44:04.449Z,101115.88
2019-04-11T19:46:51.709Z,101119.15
2019-04-11T19:49:38.190Z,101120.31
2019-04-11T19:52:24.076Z,101121.47
2019-04-11T19:55:35.839Z,101120.18
2019-04-11T19:58:24.571Z,101120.28
2019-04-11T20:01:10.444Z,101119.70
2019-04-11T20:03:56.558Z,101119.09
2019-04-11T20:06:42.089Z,101121.59
2019-04-11T20:09:27.623Z,101121.84
2019-04-11T20:12:13.755Z,101121.11
2019-04-11T20:14:59.495Z,101119.82
2019-04-11T20:17:45.383Z,101122.70
2019-04-11T20:20:31.399Z,101121.70
2019-04-11T20:23:17.369Z,101120.47
2019-04-11T20:26:03.584Z,101122.20
2019-04-11T20:28:50.901Z,101118.15
2019-04-11T20:31:37.652Z,101122.36
2019-04-11T20:34:27.680Z,101125.86
2019-04-11T20:37:12.988Z,101126.98
2019-04-11T20:40:00.774Z,101122.64
2019-04-11T20:42:46.695Z,101130.39
2019-04-11T20:45:35.288Z,101124.89
2019-04-11T20:48:20.979Z,101125.28
2019-04-11T20:51:06.593Z,101124.10
2019-04-11T20:53:53.603Z,101123.61
2019-04-11T20:56:40.318Z,101121.98
2019-04-11T20:59:34.353Z,101116.91
2019-04-11T21:02:14.447Z,101118.67
2019-04-11T21:05:01.234Z,101119.58
2019-04-11T21:07:48.154Z,101116.42
2019-04-11T21:10:34.529Z,101116.28
2019-04-11T21:13:20.576Z,101116.73
2019-04-11T21:16:07.461Z,101116.62
2019-04-11T21:18:55.545Z,101121.28
2019-04-11T21:21:41.703Z,101122.27
2019-04-11T21:24:30.534Z,101120.65
2019-04-11T21:27:15.758Z,101122.64
2019-04-11T21:30:01.775Z,101120.69
2019-04-11T21:32:48.066Z,101123.25
2019-04-11T21:35:34.016Z,101122.73
2019-04-11T21:38:21.506Z,101123.50
2019-04-11T21:41:07.628Z,101123.50
2019-04-11T21:43:52.998Z,101131.83
2019-04-11T21:46:41.756Z,101126.84
2019-04-11T21:49:26.533Z,101128.88
2019-04-11T21:52:12.919Z,101136.94
2019-04-11T21:54:59.492Z,101134.44
2019-04-11T21:57:48.579Z,101140.19
2019-04-11T22:00:41.981Z,101137.80
2019-04-11T22:03:27.612Z,101139.52
2019-04-11T22:06:13.183Z,101135.00
2019-04-11T22:08:59.736Z,101158.13
2019-04-11T22:11:45.417Z,101134.70
2019-04-11T22:14:30.958Z,101136.21
2019-04-11T22:17:17.125Z,101140.04
2019-04-11T22:20:03.505Z,101133.78
2019-04-11T22:22:49.357Z,101141.73
2019-04-11T22:25:35.096Z,101136.11
2019-04-11T22:28:24.071Z,101142.76
2019-04-11T22:31:09.360Z,101171.02
2019-04-11T22:34:12.982Z,101144.08
2019-04-11T22:37:00.004Z,101146.46
2019-04-11T22:39:46.580Z,101142.42
2019-04-11T22:42:32.220Z,101144.23
2019-04-11T22:45:17.836Z,101144.23
2019-04-11T22:48:03.612Z,101144.23
2019-04-11T22:50:49.102Z,101141.17
2019-04-11T22:53:34.580Z,101144.80
2019-04-11T22:56:20.762Z,101141.66
2019-04-11T22:59:06.296Z,101141.66
2019-04-11T23:01:53.567Z,101142.67
2019-04-11T23:04:40.020Z,101142.67
2019-04-11T23:07:25.824Z,101149.97
2019-04-11T23:10:11.769Z,101148.49
2019-04-11T23:12:58.368Z,101144.64
2019-04-11T23:15:44.430Z,101138.14
2019-04-11T23:18:30.386Z,101141.70
2019-04-11T23:21:16.804Z,101141.70
2019-04-11T23:24:11.488Z,101144.41
2019-04-11T23:26:51.168Z,101140.38
2019-04-11T23:29:37.576Z,101144.59
2019-04-11T23:32:23.172Z,101141.96
2019-04-11T23:35:08.779Z,101139.54
2019-04-11T23:37:54.719Z,101150.30
2019-04-11T23:40:40.560Z,101149.62
2019-04-11T23:43:26.475Z,101145.23
2019-04-11T23:46:12.472Z,101145.23
2019-04-11T23:48:58.279Z,101152.34
2019-04-11T23:51:44.193Z,101155.28
2019-04-11T23:54:29.952Z,101162.25
2019-04-11T23:57:16.504Z,101161.91
